createdAt,value
2023-02-13T00:00:10.608Z,2.70
2023-02-13T00:02:37.330Z,2.70
2023-02-13T00:05:03.967Z,2.70
2023-02-13T00:07:30.681Z,2.70
2023-02-13T00:09:57.314Z,2.70
2023-02-13T00:12:24.000Z,2.70
2023-02-13T00:14:50.674Z,2.70
2023-02-13T00:17:17.338Z,2.70
2023-02-13T00:19:44.132Z,2.70
2023-02-13T00:22:10.869Z,2.70
2023-02-13T00:24:37.569Z,2.70
2023-02-13T00:27:04.228Z,2.70
2023-02-13T00:29:31.911Z,2.70
2023-02-13T00:31:58.723Z,2.70
2023-02-13T00:34:25.711Z,2.70
2023-02-13T00:36:52.425Z,2.70
2023-02-13T00:39:19.107Z,2.70
2023-02-13T00:41:45.715Z,2.70
2023-02-13T00:44:12.340Z,2.70
2023-02-13T00:46:39.373Z,2.70
2023-02-13T00:49:06.300Z,2.70
2023-02-13T00:51:32.933Z,2.70
2023-02-13T00:53:59.676Z,2.80
2023-02-13T00:56:26.298Z,2.70
2023-02-13T00:58:53.053Z,2.70
2023-02-13T01:01:19.746Z,2.70
2023-02-13T01:03:46.610Z,2.70
2023-02-13T01:06:13.344Z,2.70
2023-02-13T01:08:40.211Z,2.70
2023-02-13T01:11:07.419Z,2.70
2023-02-13T01:13:34.035Z,2.70
2023-02-13T01:16:01.022Z,2.70
2023-02-13T01:18:27.729Z,2.80
2023-02-13T01:20:57.832Z,2.80
2023-02-13T01:23:24.698Z,2.70
2023-02-13T01:25:51.749Z,2.70
2023-02-13T01:28:18.515Z,2.70
2023-02-13T01:30:45.301Z,2.70
2023-02-13T01:33:12.084Z,2.70
2023-02-13T01:35:39.362Z,2.70
2023-02-13T01:38:06.010Z,2.70
2023-02-13T01:40:32.900Z,2.70
2023-02-13T01:42:59.554Z,2.70
2023-02-13T01:45:29.905Z,2.70
2023-02-13T01:47:59.321Z,2.70
2023-02-13T01:50:46.270Z,2.70
2023-02-13T01:53:16.858Z,2.70
2023-02-13T01:55:46.972Z,2.60
2023-02-13T01:58:16.437Z,2.50
2023-02-13T02:00:43.441Z,2.50
2023-02-13T02:03:12.954Z,2.50
2023-02-13T02:05:39.855Z,2.50
2023-02-13T02:08:08.707Z,2.40
2023-02-13T02:10:35.534Z,2.30
2023-02-13T02:13:02.133Z,2.20
2023-02-13T02:15:29.286Z,2.20
2023-02-13T02:17:55.953Z,2.10
2023-02-13T02:20:31.715Z,2.10
2023-02-13T02:23:26.808Z,2.10
2023-02-13T02:26:05.776Z,2.20
2023-02-13T02:28:38.620Z,2.20
2023-02-13T02:31:24.329Z,2.10
2023-02-13T02:33:51.019Z,2.10
2023-02-13T02:36:20.669Z,2.20
2023-02-13T02:38:56.516Z,2.10
2023-02-13T02:41:51.018Z,2.10
2023-02-13T02:44:17.616Z,2.10
2023-02-13T02:47:21.344Z,2.00
2023-02-13T02:49:59.266Z,1.90
2023-02-13T02:52:46.279Z,1.90
2023-02-13T02:55:27.818Z,1.90
2023-02-13T02:58:22.317Z,1.80
2023-02-13T03:01:09.098Z,1.80
2023-02-13T03:03:54.500Z,1.70
2023-02-13T03:06:35.931Z,1.80
2023-02-13T03:09:23.358Z,1.80
2023-02-13T03:12:10.190Z,1.70
2023-02-13T03:14:37.185Z,1.70
2023-02-13T03:17:23.257Z,1.70
2023-02-13T03:20:16.561Z,1.70
2023-02-13T03:23:02.034Z,1.70
2023-02-13T03:25:54.157Z,1.70
2023-02-13T03:28:49.157Z,1.70
2023-02-13T03:31:24.113Z,1.80
2023-02-13T03:33:59.975Z,1.80
2023-02-13T03:36:45.236Z,1.90
2023-02-13T03:39:15.378Z,1.90
2023-02-13T03:41:45.692Z,1.90
2023-02-13T03:44:16.203Z,1.90
2023-02-13T03:46:45.694Z,1.90
2023-02-13T03:49:41.284Z,1.90
2023-02-13T03:52:10.424Z,1.90
2023-02-13T03:55:04.114Z,1.80
2023-02-13T03:57:51.717Z,1.90
2023-02-13T04:00:19.810Z,1.80
2023-02-13T04:02:56.946Z,1.80
2023-02-13T04:05:25.716Z,1.90
2023-02-13T04:07:52.468Z,1.90
2023-02-13T04:10:19.726Z,1.90
2023-02-13T04:13:06.711Z,1.90
2023-02-13T04:15:42.896Z,1.90
2023-02-13T04:18:19.013Z,1.80
2023-02-13T04:20:45.729Z,1.80
2023-02-13T04:23:12.604Z,1.80
2023-02-13T04:25:41.623Z,1.80
2023-02-13T04:28:08.641Z,1.80
2023-02-13T04:30:36.619Z,1.80
2023-02-13T04:33:03.346Z,1.70
2023-02-13T04:35:29.983Z,1.70
2023-02-13T04:37:56.686Z,1.60
2023-02-13T04:40:24.400Z,1.60
2023-02-13T04:42:51.138Z,1.60
2023-02-13T04:45:17.822Z,1.70
2023-02-13T04:47:49.572Z,1.70
2023-02-13T04:50:16.273Z,1.60
2023-02-13T04:52:42.871Z,1.60
2023-02-13T04:55:09.585Z,1.60
2023-02-13T04:57:36.250Z,1.70
2023-02-13T05:00:04.403Z,1.60
2023-02-13T05:02:31.620Z,1.50
2023-02-13T05:04:58.240Z,1.50
2023-02-13T05:07:24.832Z,1.50
2023-02-13T05:09:54.515Z,1.50
2023-02-13T05:12:21.147Z,1.50
2023-02-13T05:14:48.004Z,1.50
2023-02-13T05:17:15.013Z,1.50
2023-02-13T05:19:41.684Z,1.50
2023-02-13T05:22:30.060Z,1.50
2023-02-13T05:24:56.796Z,1.50
2023-02-13T05:27:23.487Z,1.40
2023-02-13T05:29:50.113Z,1.50
2023-02-13T05:32:16.810Z,1.50
2023-02-13T05:34:43.503Z,1.50
2023-02-13T05:37:10.155Z,1.50
2023-02-13T05:39:36.822Z,1.50
2023-02-13T05:42:04.830Z,1.40
2023-02-13T05:44:32.028Z,1.50
2023-02-13T05:46:58.673Z,1.50
2023-02-13T05:49:25.423Z,1.60
2023-02-13T05:51:52.435Z,1.60
2023-02-13T05:54:19.446Z,1.60
2023-02-13T05:56:46.874Z,1.60
2023-02-13T05:59:13.572Z,1.60
2023-02-13T06:01:40.241Z,1.50
2023-02-13T06:04:06.985Z,1.50
2023-02-13T06:06:33.766Z,1.60
2023-02-13T06:09:00.441Z,1.50
2023-02-13T06:11:27.145Z,1.50
2023-02-13T06:13:53.761Z,1.50
2023-02-13T06:16:20.647Z,1.50
2023-02-13T06:18:47.301Z,1.50
2023-02-13T06:21:14.010Z,1.50
2023-02-13T06:23:40.629Z,1.50
2023-02-13T06:26:08.333Z,1.50
2023-02-13T06:28:35.418Z,1.60
2023-02-13T06:31:02.596Z,1.50
2023-02-13T06:33:29.690Z,1.50
2023-02-13T06:35:56.294Z,1.50
2023-02-13T06:38:22.968Z,1.50
2023-02-13T06:40:49.748Z,1.50
2023-02-13T06:43:16.447Z,1.50
2023-02-13T06:45:43.565Z,1.60
2023-02-13T06:48:10.208Z,1.60
2023-02-13T06:50:36.846Z,1.60
2023-02-13T06:53:03.473Z,1.50
2023-02-13T06:55:31.862Z,1.50
2023-02-13T06:57:58.519Z,1.50
2023-02-13T07:00:27.174Z,1.50
2023-02-13T07:02:53.985Z,1.50
2023-02-13T07:05:20.644Z,1.50
2023-02-13T07:07:47.280Z,1.50
2023-02-13T07:10:14.373Z,1.50
2023-02-13T07:12:41.111Z,1.50
2023-02-13T07:15:08.239Z,1.50
2023-02-13T07:17:35.086Z,1.50
2023-02-13T07:20:04.528Z,1.40
2023-02-13T07:22:32.481Z,1.30
2023-02-13T07:25:00.105Z,1.30
2023-02-13T07:27:29.332Z,1.30
2023-02-13T07:29:59.006Z,1.30
2023-02-13T07:32:25.779Z,1.40
2023-02-13T07:35:01.710Z,1.40
2023-02-13T07:37:29.819Z,1.40
2023-02-13T07:39:56.451Z,1.40
2023-02-13T07:42:23.174Z,1.30
2023-02-13T07:44:49.805Z,1.30
2023-02-13T07:47:18.299Z,1.30
2023-02-13T07:49:46.334Z,1.40
2023-02-13T07:52:12.994Z,1.40
2023-02-13T07:54:47.237Z,1.40
2023-02-13T07:57:14.825Z,1.50
2023-02-13T07:59:41.531Z,1.50
2023-02-13T08:02:13.401Z,1.60
2023-02-13T08:04:40.705Z,1.60
2023-02-13T08:07:07.534Z,1.50
2023-02-13T08:09:53.028Z,1.50
2023-02-13T08:12:19.673Z,1.60
2023-02-13T08:14:46.312Z,1.60
2023-02-13T08:17:13.409Z,1.60
2023-02-13T08:19:40.580Z,1.60
2023-02-13T08:22:07.236Z,1.60
2023-02-13T08:24:33.931Z,1.60
2023-02-13T08:27:00.602Z,1.60
2023-02-13T08:29:27.236Z,1.70
2023-02-13T08:31:53.926Z,1.70
2023-02-13T08:34:20.586Z,1.70
2023-02-13T08:36:47.211Z,1.60
2023-02-13T08:39:13.883Z,1.70
2023-02-13T08:41:40.564Z,1.80
2023-02-13T08:44:07.234Z,1.90
2023-02-13T08:46:33.861Z,1.90
2023-02-13T08:49:00.529Z,1.90
2023-02-13T08:51:27.426Z,1.90
2023-02-13T08:53:54.161Z,2.00
2023-02-13T08:56:20.866Z,2.10
2023-02-13T08:58:50.553Z,2.10
2023-02-13T09:01:17.319Z,2.30
2023-02-13T09:03:44.058Z,2.30
2023-02-13T09:06:10.727Z,2.20
2023-02-13T09:08:37.341Z,2.10
2023-02-13T09:11:06.555Z,2.20
2023-02-13T09:13:34.533Z,2.20
2023-02-13T09:16:02.511Z,2.20
2023-02-13T09:18:29.221Z,2.30
2023-02-13T09:21:03.242Z,2.30
2023-02-13T09:23:33.899Z,2.20
2023-02-13T09:26:01.679Z,2.20
2023-02-13T09:28:29.669Z,2.30
2023-02-13T09:30:56.508Z,2.40
2023-02-13T09:33:23.446Z,2.40
2023-02-13T09:35:50.169Z,2.40
2023-02-13T09:38:17.015Z,2.50
2023-02-13T09:40:57.823Z,2.50
2023-02-13T09:43:32.823Z,2.40
2023-02-13T09:46:01.533Z,2.50
2023-02-13T09:48:29.894Z,2.70
2023-02-13T09:50:57.215Z,2.70
2023-02-13T09:53:24.528Z,2.80
2023-02-13T09:56:03.526Z,2.80
2023-02-13T09:58:51.205Z,2.90
2023-02-13T10:01:26.238Z,2.90
2023-02-13T10:04:11.681Z,2.90
2023-02-13T10:06:49.854Z,2.90
2023-02-13T10:09:21.677Z,3.00
2023-02-13T10:11:57.798Z,3.00
2023-02-13T10:14:32.789Z,3.10
2023-02-13T10:17:06.765Z,3.00
2023-02-13T10:19:42.679Z,3.00
2023-02-13T10:22:09.251Z,2.90
2023-02-13T10:24:54.905Z,2.80
2023-02-13T10:27:48.028Z,2.80
2023-02-13T10:30:36.735Z,2.70
2023-02-13T10:33:19.499Z,2.60
2023-02-13T10:35:46.130Z,2.60
2023-02-13T10:38:17.284Z,2.70
2023-02-13T10:41:07.283Z,2.70
2023-02-13T10:43:46.017Z,2.70
2023-02-13T10:46:15.966Z,2.60
2023-02-13T10:48:45.675Z,2.70
2023-02-13T10:51:21.115Z,2.70
2023-02-13T10:54:06.065Z,2.90
2023-02-13T10:56:51.532Z,3.10
2023-02-13T10:59:37.016Z,3.10
2023-02-13T11:02:12.037Z,3.10
2023-02-13T11:04:40.279Z,3.20
2023-02-13T11:07:11.281Z,3.40
2023-02-13T11:09:40.005Z,3.30
2023-02-13T11:12:23.144Z,3.40
2023-02-13T11:15:07.432Z,3.30
2023-02-13T11:17:39.732Z,3.40
2023-02-13T11:20:26.837Z,3.20
2023-02-13T11:22:53.693Z,3.20
2023-02-13T11:25:22.746Z,3.30
2023-02-13T11:27:50.452Z,3.30
2023-02-13T11:30:23.090Z,3.30
2023-02-13T11:32:59.081Z,3.30
2023-02-13T11:35:28.293Z,3.30
2023-02-13T11:38:27.341Z,3.40
2023-02-13T11:41:04.045Z,3.40
2023-02-13T11:43:36.890Z,3.30
2023-02-13T11:46:05.530Z,3.40
2023-02-13T11:48:32.361Z,3.60
2023-02-13T11:50:59.175Z,3.70
2023-02-13T11:53:29.202Z,3.90
2023-02-13T11:56:06.918Z,3.70
2023-02-13T11:58:34.256Z,3.70
2023-02-13T12:01:19.762Z,3.80
2023-02-13T12:04:03.746Z,3.70
2023-02-13T12:06:31.353Z,3.70
2023-02-13T12:08:58.115Z,3.70
2023-02-13T12:11:34.212Z,3.70
2023-02-13T12:14:00.850Z,3.70
2023-02-13T12:16:30.568Z,3.70
2023-02-13T12:19:00.101Z,3.70
2023-02-13T12:21:29.765Z,3.80
2023-02-13T12:23:59.377Z,3.80
2023-02-13T12:26:26.010Z,3.80
2023-02-13T12:29:06.109Z,3.90
2023-02-13T12:31:44.452Z,4.00
2023-02-13T12:34:29.496Z,4.00
2023-02-13T12:36:56.146Z,3.90
2023-02-13T12:39:49.189Z,3.80
2023-02-13T12:42:34.603Z,3.80
2023-02-13T12:45:21.085Z,3.80
2023-02-13T12:48:10.580Z,3.80
2023-02-13T12:50:40.283Z,3.90
2023-02-13T12:53:13.474Z,3.80
2023-02-13T12:55:40.140Z,3.70
2023-02-13T12:58:18.987Z,3.80
2023-02-13T13:00:58.280Z,4.00
2023-02-13T13:03:31.304Z,3.90
2023-02-13T13:06:15.751Z,3.90
2023-02-13T13:08:54.593Z,3.80
2023-02-13T13:11:21.196Z,3.80
2023-02-13T13:13:56.575Z,3.80
2023-02-13T13:16:45.252Z,3.90
2023-02-13T13:19:23.785Z,3.90
2023-02-13T13:22:00.212Z,3.90
2023-02-13T13:24:26.820Z,3.90
2023-02-13T13:26:57.310Z,3.80
2023-02-13T13:29:40.011Z,3.80
2023-02-13T13:32:08.443Z,3.70
2023-02-13T13:34:36.693Z,3.70
2023-02-13T13:37:13.886Z,3.80
2023-02-13T13:40:07.502Z,3.90
2023-02-13T13:42:48.199Z,3.70
2023-02-13T13:45:30.088Z,3.70
2023-02-13T13:47:59.869Z,3.80
2023-02-13T13:50:28.316Z,3.90
2023-02-13T13:53:19.721Z,3.80
2023-02-13T13:55:52.847Z,3.80
2023-02-13T13:58:36.881Z,3.80
2023-02-13T14:01:19.080Z,3.80
2023-02-13T14:03:46.656Z,3.70
2023-02-13T14:06:15.036Z,3.80
2023-02-13T14:08:41.665Z,3.70
2023-02-13T14:11:27.216Z,3.70
2023-02-13T14:13:53.872Z,3.70
2023-02-13T14:16:38.980Z,3.70
2023-02-13T14:19:23.285Z,3.70
2023-02-13T14:21:49.935Z,3.70
2023-02-13T14:24:18.062Z,3.60
2023-02-13T14:26:52.454Z,3.60
2023-02-13T14:29:26.745Z,3.60
2023-02-13T14:32:01.894Z,3.60
2023-02-13T14:34:30.667Z,3.50
2023-02-13T14:37:03.875Z,3.50
2023-02-13T14:39:31.854Z,3.50
2023-02-13T14:41:59.892Z,3.50
2023-02-13T14:44:32.752Z,3.50
2023-02-13T14:47:12.640Z,3.50
2023-02-13T14:49:41.014Z,3.50
2023-02-13T14:52:18.863Z,3.30
2023-02-13T14:54:46.815Z,3.30
2023-02-13T14:57:20.974Z,3.40
2023-02-13T14:59:50.753Z,3.30
2023-02-13T15:02:17.370Z,3.20
2023-02-13T15:04:46.849Z,3.20
2023-02-13T15:07:15.733Z,3.20
2023-02-13T15:09:46.477Z,3.20
2023-02-13T15:12:30.643Z,3.40
2023-02-13T15:14:57.554Z,3.30
2023-02-13T15:17:26.807Z,3.40
2023-02-13T15:19:55.060Z,3.50
2023-02-13T15:22:30.760Z,3.40
2023-02-13T15:24:58.189Z,3.40
2023-02-13T15:27:26.335Z,3.30
2023-02-13T15:29:57.255Z,3.30
2023-02-13T15:32:32.424Z,3.30
2023-02-13T15:34:59.259Z,3.40
2023-02-13T15:37:28.442Z,3.30
2023-02-13T15:39:55.089Z,3.30
2023-02-13T15:42:22.077Z,3.20
2023-02-13T15:44:50.146Z,3.20
2023-02-13T15:47:30.590Z,3.20
2023-02-13T15:49:57.475Z,3.20
2023-02-13T15:52:32.599Z,3.20
2023-02-13T15:54:59.685Z,3.20
2023-02-13T15:57:27.392Z,3.20
2023-02-13T15:59:58.714Z,3.20
2023-02-13T16:02:31.957Z,3.10
2023-02-13T16:04:58.796Z,3.20
2023-02-13T16:07:25.559Z,3.20
2023-02-13T16:09:52.529Z,3.10
2023-02-13T16:12:26.689Z,3.20
2023-02-13T16:14:55.121Z,3.20
2023-02-13T16:17:29.884Z,3.10
2023-02-13T16:20:08.270Z,3.10
2023-02-13T16:22:45.239Z,3.10
2023-02-13T16:25:16.614Z,3.10
2023-02-13T16:27:48.272Z,3.10
2023-02-13T16:30:35.459Z,3.10
2023-02-13T16:33:15.228Z,3.20
2023-02-13T16:35:42.697Z,3.20
2023-02-13T16:38:24.620Z,3.20
2023-02-13T16:40:51.531Z,3.20
2023-02-13T16:43:40.198Z,3.30
2023-02-13T16:46:11.481Z,3.30
2023-02-13T16:48:38.448Z,3.30
2023-02-13T16:51:06.422Z,3.30
2023-02-13T16:53:34.356Z,3.30
2023-02-13T16:56:01.725Z,3.30
2023-02-13T16:58:28.395Z,3.30
2023-02-13T17:00:55.355Z,3.30
2023-02-13T17:03:22.083Z,3.40
2023-02-13T17:05:48.698Z,3.40
2023-02-13T17:08:15.492Z,3.30
2023-02-13T17:11:00.623Z,3.30
2023-02-13T17:13:27.313Z,3.40
2023-02-13T17:15:55.232Z,3.40
2023-02-13T17:18:21.938Z,3.30
2023-02-13T17:20:50.390Z,3.30
2023-02-13T17:23:22.430Z,3.30
2023-02-13T17:25:49.958Z,3.30
2023-02-13T17:28:18.760Z,3.30
2023-02-13T17:30:45.902Z,3.30
2023-02-13T17:33:14.577Z,3.30
2023-02-13T17:35:41.306Z,3.30
2023-02-13T17:38:09.596Z,3.30
2023-02-13T17:40:36.505Z,3.30
2023-02-13T17:43:03.260Z,3.30
2023-02-13T17:45:31.293Z,3.30
2023-02-13T17:47:58.438Z,3.30
2023-02-13T17:50:25.866Z,3.30
2023-02-13T17:52:52.612Z,3.30
2023-02-13T17:55:21.238Z,3.30
2023-02-13T17:57:48.466Z,3.30
2023-02-13T18:00:15.691Z,3.30
2023-02-13T18:02:45.366Z,3.20
2023-02-13T18:05:12.074Z,3.30
2023-02-13T18:07:40.848Z,3.30
2023-02-13T18:10:08.148Z,3.30
2023-02-13T18:12:34.909Z,3.30
2023-02-13T18:15:01.656Z,3.30
2023-02-13T18:17:28.422Z,3.30
2023-02-13T18:19:55.769Z,3.30
2023-02-13T18:22:22.463Z,3.30
2023-02-13T18:24:49.204Z,3.30
2023-02-13T18:27:16.454Z,3.30
2023-02-13T18:29:43.104Z,3.30
2023-02-13T18:32:11.416Z,3.30
2023-02-13T18:34:38.810Z,3.30
2023-02-13T18:37:06.219Z,3.30
2023-02-13T18:39:32.970Z,3.30
2023-02-13T18:41:59.737Z,3.30
2023-02-13T18:44:28.614Z,3.30
2023-02-13T18:46:55.726Z,3.20
2023-02-13T18:49:22.347Z,3.20
2023-02-13T18:51:49.028Z,3.20
2023-02-13T18:54:16.656Z,3.20
2023-02-13T18:56:43.735Z,3.20
2023-02-13T18:59:10.491Z,3.10
2023-02-13T19:01:37.540Z,3.20
2023-02-13T19:04:04.396Z,3.20
2023-02-13T19:06:31.589Z,3.10
2023-02-13T19:08:58.872Z,3.10
2023-02-13T19:11:26.496Z,3.10
2023-02-13T19:13:55.035Z,3.10
2023-02-13T19:16:22.332Z,3.10
2023-02-13T19:18:53.028Z,3.00
2023-02-13T19:21:20.857Z,3.10
2023-02-13T19:23:47.675Z,3.10
2023-02-13T19:26:15.263Z,3.10
2023-02-13T19:28:42.094Z,3.10
2023-02-13T19:31:10.406Z,3.10
2023-02-13T19:33:37.605Z,3.10
2023-02-13T19:36:05.904Z,3.10
2023-02-13T19:38:32.567Z,3.10
2023-02-13T19:41:02.875Z,3.10
2023-02-13T19:43:29.559Z,3.10
2023-02-13T19:45:56.453Z,3.10
2023-02-13T19:48:23.251Z,3.00
2023-02-13T19:50:49.940Z,3.00
2023-02-13T19:53:16.545Z,3.00
2023-02-13T19:55:43.335Z,3.00
2023-02-13T19:58:10.078Z,3.00
2023-02-13T20:00:36.808Z,3.00
2023-02-13T20:03:04.539Z,3.00
2023-02-13T20:05:40.769Z,3.00
2023-02-13T20:08:07.377Z,3.00
2023-02-13T20:10:34.027Z,3.00
2023-02-13T20:13:00.721Z,3.00
2023-02-13T20:15:32.032Z,3.00
2023-02-13T20:17:58.988Z,3.00
2023-02-13T20:20:27.790Z,2.90
2023-02-13T20:22:54.411Z,2.90
2023-02-13T20:25:22.148Z,2.90
2023-02-13T20:27:48.846Z,3.00
2023-02-13T20:30:15.940Z,3.00
2023-02-13T20:32:43.911Z,3.00
2023-02-13T20:35:10.564Z,3.00
2023-02-13T20:37:37.284Z,3.00
2023-02-13T20:40:04.092Z,3.00
2023-02-13T20:42:32.434Z,3.00
2023-02-13T20:44:59.130Z,2.90
2023-02-13T20:47:25.796Z,3.00
2023-02-13T20:49:52.733Z,3.00
2023-02-13T20:52:21.736Z,3.00
2023-02-13T20:54:51.425Z,3.00
2023-02-13T20:57:20.412Z,3.00
2023-02-13T20:59:47.108Z,2.90
2023-02-13T21:02:13.912Z,3.00
2023-02-13T21:04:40.633Z,2.90
2023-02-13T21:07:09.189Z,3.00
2023-02-13T21:09:39.016Z,3.00
2023-02-13T21:12:05.863Z,3.00
2023-02-13T21:14:32.476Z,3.00
2023-02-13T21:16:59.133Z,3.00
2023-02-13T21:19:25.837Z,2.90
2023-02-13T21:21:52.529Z,2.80
2023-02-13T21:24:21.285Z,2.90
2023-02-13T21:26:49.514Z,2.90
2023-02-13T21:29:16.214Z,2.90
2023-02-13T21:31:44.891Z,2.90
2023-02-13T21:34:12.129Z,2.90
2023-02-13T21:36:40.448Z,2.90
2023-02-13T21:39:08.074Z,2.80
2023-02-13T21:41:35.014Z,2.90
2023-02-13T21:44:01.688Z,2.90
2023-02-13T21:46:29.665Z,2.80
2023-02-13T21:49:06.139Z,2.80
2023-02-13T21:51:33.790Z,2.80
2023-02-13T21:54:01.978Z,2.80
2023-02-13T21:56:30.037Z,2.80
2023-02-13T21:58:57.008Z,2.80
2023-02-13T22:01:28.348Z,2.80
2023-02-13T22:04:01.011Z,2.70
2023-02-13T22:06:28.764Z,2.70
2023-02-13T22:08:56.453Z,2.70
2023-02-13T22:11:23.124Z,2.70
2023-02-13T22:13:53.610Z,2.70
2023-02-13T22:16:20.303Z,2.60
2023-02-13T22:18:48.848Z,2.60
2023-02-13T22:21:17.124Z,2.70
2023-02-13T22:23:44.360Z,2.70
2023-02-13T22:26:18.498Z,2.70
2023-02-13T22:28:45.465Z,2.70
2023-02-13T22:31:12.944Z,2.70
2023-02-13T22:33:39.652Z,2.60
2023-02-13T22:36:06.630Z,2.60
2023-02-13T22:38:37.124Z,2.50
2023-02-13T22:41:08.351Z,2.50
2023-02-13T22:43:35.392Z,2.50
2023-02-13T22:46:03.051Z,2.50
2023-02-13T22:48:29.911Z,2.50
2023-02-13T22:50:56.836Z,2.50
2023-02-13T22:53:23.746Z,2.50
2023-02-13T22:55:50.868Z,2.50
2023-02-13T22:58:17.510Z,2.50
2023-02-13T23:00:44.137Z,2.50
2023-02-13T23:03:10.749Z,2.50
2023-02-13T23:05:40.741Z,2.40
2023-02-13T23:08:07.957Z,2.40
2023-02-13T23:10:34.592Z,2.40
2023-02-13T23:13:01.384Z,2.40
2023-02-13T23:15:28.174Z,2.40
2023-02-13T23:18:13.157Z,2.40
2023-02-13T23:20:41.812Z,2.40
2023-02-13T23:23:09.254Z,2.40
2023-02-13T23:25:36.517Z,2.40
2023-02-13T23:28:03.496Z,2.40
2023-02-13T23:30:30.536Z,2.40
2023-02-13T23:32:57.995Z,2.40
2023-02-13T23:35:24.882Z,2.40
2023-02-13T23:37:51.718Z,2.50
2023-02-13T23:40:18.798Z,2.40
2023-02-13T23:42:45.516Z,2.40
2023-02-13T23:45:12.549Z,2.40
2023-02-13T23:47:39.128Z,2.40
2023-02-13T23:50:06.122Z,2.40
2023-02-13T23:52:32.704Z,2.40
2023-02-13T23:54:59.298Z,2.40
2023-02-13T23:57:25.999Z,2.40
2023-02-13T23:59:52.649Z,2.40
